createdAt,value
2023-02-20T00:01:28.669Z,23.00
2023-02-20T00:03:55.508Z,23.00
2023-02-20T00:06:22.315Z,23.00
2023-02-20T00:08:49.163Z,23.00
2023-02-20T00:11:15.888Z,23.10
2023-02-20T00:13:46.795Z,23.10
2023-02-20T00:16:14.064Z,23.00
2023-02-20T00:18:41.326Z,23.00
2023-02-20T00:21:08.519Z,23.00
2023-02-20T00:23:35.265Z,23.00
2023-02-20T00:26:02.091Z,23.00
2023-02-20T00:28:29.873Z,23.00
2023-02-20T00:30:56.890Z,23.00
2023-02-20T00:33:23.827Z,23.00
2023-02-20T00:35:50.596Z,23.00
2023-02-20T00:38:17.341Z,23.00
2023-02-20T00:40:44.013Z,23.00
2023-02-20T00:43:10.693Z,23.00
2023-02-20T00:45:37.364Z,23.00
2023-02-20T00:48:04.465Z,23.00
2023-02-20T00:50:31.117Z,23.00
2023-02-20T00:52:57.794Z,23.00
2023-02-20T00:55:24.474Z,23.00
2023-02-20T00:57:51.232Z,23.00
2023-02-20T01:00:21.799Z,23.00
2023-02-20T01:02:48.557Z,23.00
2023-02-20T01:05:15.800Z,23.00
2023-02-20T01:07:42.516Z,23.00
2023-02-20T01:10:11.168Z,23.00
2023-02-20T01:12:37.971Z,23.00
2023-02-20T01:15:06.508Z,23.00
2023-02-20T01:17:33.396Z,23.00
2023-02-20T01:20:00.159Z,23.00
2023-02-20T01:22:26.877Z,23.00
2023-02-20T01:24:53.554Z,23.00
2023-02-20T01:27:20.249Z,23.00
2023-02-20T01:29:46.919Z,23.00
2023-02-20T01:32:13.861Z,23.00
2023-02-20T01:34:40.666Z,23.00
2023-02-20T01:37:07.375Z,23.00
2023-02-20T01:39:34.114Z,23.00
2023-02-20T01:42:05.245Z,23.00
2023-02-20T01:44:35.190Z,23.00
2023-02-20T01:47:09.206Z,23.00
2023-02-20T01:49:43.756Z,23.00
2023-02-20T01:52:23.417Z,23.00
2023-02-20T01:54:56.053Z,23.00
2023-02-20T01:57:26.187Z,23.00
2023-02-20T01:59:59.654Z,23.00
2023-02-20T02:02:30.801Z,22.90
2023-02-20T02:04:57.508Z,23.00
2023-02-20T02:07:24.614Z,23.00
2023-02-20T02:10:04.323Z,22.90
2023-02-20T02:12:31.541Z,22.90
2023-02-20T02:14:58.287Z,22.90
2023-02-20T02:17:39.774Z,23.00
2023-02-20T02:20:15.385Z,22.90
2023-02-20T02:23:05.766Z,22.90
2023-02-20T02:25:56.679Z,23.00
2023-02-20T02:29:10.515Z,22.90
2023-02-20T02:31:40.350Z,23.00
2023-02-20T02:34:43.931Z,23.00
2023-02-20T02:37:19.218Z,22.90
2023-02-20T02:40:27.999Z,23.00
2023-02-20T02:43:32.075Z,22.90
2023-02-20T02:46:34.908Z,22.90
2023-02-20T02:49:11.955Z,22.90
2023-02-20T02:51:45.569Z,23.00
2023-02-20T02:54:22.317Z,22.90
2023-02-20T02:56:49.403Z,22.90
2023-02-20T02:59:30.157Z,22.90
2023-02-20T03:02:05.274Z,22.90
2023-02-20T03:04:34.741Z,22.90
2023-02-20T03:07:07.659Z,22.90
2023-02-20T03:09:43.862Z,22.90
2023-02-20T03:12:13.487Z,22.90
2023-02-20T03:15:14.999Z,22.90
2023-02-20T03:18:10.621Z,22.90
2023-02-20T03:20:43.659Z,22.90
2023-02-20T03:23:15.808Z,22.90
2023-02-20T03:25:52.102Z,22.90
2023-02-20T03:28:31.329Z,22.90
2023-02-20T03:31:08.062Z,22.90
2023-02-20T03:34:01.716Z,22.90
2023-02-20T03:36:56.473Z,22.90
2023-02-20T03:39:47.770Z,22.90
2023-02-20T03:42:35.567Z,22.90
2023-02-20T03:45:05.099Z,22.90
2023-02-20T03:47:34.654Z,22.90
2023-02-20T03:50:23.363Z,22.90
2023-02-20T03:52:50.524Z,22.90
2023-02-20T03:55:17.254Z,22.90
2023-02-20T03:57:50.003Z,22.90
2023-02-20T04:00:29.434Z,22.90
2023-02-20T04:02:59.476Z,22.80
2023-02-20T04:05:29.320Z,22.90
2023-02-20T04:07:59.377Z,22.80
2023-02-20T04:10:29.774Z,22.80
2023-02-20T04:12:58.151Z,22.90
2023-02-20T04:15:25.613Z,22.90
2023-02-20T04:18:02.073Z,22.80
2023-02-20T04:20:28.813Z,22.80
2023-02-20T04:23:00.741Z,22.80
2023-02-20T04:25:30.222Z,22.80
2023-02-20T04:27:57.419Z,22.80
2023-02-20T04:30:24.393Z,22.80
2023-02-20T04:32:51.113Z,22.80
2023-02-20T04:35:20.395Z,22.80
2023-02-20T04:37:47.153Z,22.80
2023-02-20T04:40:15.923Z,22.80
2023-02-20T04:42:42.629Z,22.80
2023-02-20T04:45:09.518Z,22.80
2023-02-20T04:47:36.192Z,22.80
2023-02-20T04:50:03.583Z,22.80
2023-02-20T04:52:30.270Z,22.80
2023-02-20T04:54:56.964Z,22.80
2023-02-20T04:57:23.775Z,22.80
2023-02-20T04:59:50.578Z,22.80
2023-02-20T05:02:17.693Z,22.80
2023-02-20T05:04:44.408Z,22.80
2023-02-20T05:07:11.138Z,22.80
2023-02-20T05:09:37.917Z,22.80
2023-02-20T05:12:04.790Z,22.80
2023-02-20T05:14:31.500Z,22.80
2023-02-20T05:16:58.192Z,22.80
2023-02-20T05:19:24.858Z,22.80
2023-02-20T05:22:10.052Z,22.80
2023-02-20T05:24:36.775Z,22.80
2023-02-20T05:27:03.623Z,22.80
2023-02-20T05:29:30.310Z,22.80
2023-02-20T05:31:57.037Z,22.80
2023-02-20T05:34:25.724Z,22.80
2023-02-20T05:36:53.479Z,22.80
2023-02-20T05:39:21.042Z,22.80
2023-02-20T05:41:49.245Z,22.80
2023-02-20T05:44:16.102Z,22.80
2023-02-20T05:46:43.384Z,22.80
2023-02-20T05:49:12.431Z,22.80
2023-02-20T05:51:39.682Z,22.80
2023-02-20T05:54:06.506Z,22.80
2023-02-20T05:56:33.532Z,22.80
2023-02-20T05:59:00.682Z,22.80
2023-02-20T06:01:30.413Z,22.80
2023-02-20T06:03:57.309Z,22.80
2023-02-20T06:06:24.676Z,22.80
2023-02-20T06:08:51.471Z,22.80
2023-02-20T06:11:18.318Z,22.80
2023-02-20T06:13:46.041Z,22.80
2023-02-20T06:16:13.645Z,22.80
2023-02-20T06:18:43.362Z,22.80
2023-02-20T06:21:11.235Z,22.80
2023-02-20T06:23:39.230Z,22.80
2023-02-20T06:26:07.333Z,22.80
2023-02-20T06:28:34.614Z,22.80
2023-02-20T06:31:02.283Z,22.80
2023-02-20T06:33:29.761Z,22.80
2023-02-20T06:35:56.680Z,22.80
2023-02-20T06:38:24.064Z,22.80
2023-02-20T06:40:51.242Z,22.80
2023-02-20T06:43:18.332Z,22.80
2023-02-20T06:45:45.679Z,22.80
2023-02-20T06:48:17.307Z,22.80
2023-02-20T06:50:44.060Z,22.80
2023-02-20T06:53:10.791Z,22.80
2023-02-20T06:55:37.477Z,22.80
2023-02-20T06:58:04.170Z,22.70
2023-02-20T07:00:30.928Z,22.70
2023-02-20T07:02:57.730Z,22.70
2023-02-20T07:05:24.399Z,22.60
2023-02-20T07:07:51.131Z,22.50
2023-02-20T07:10:17.924Z,22.50
2023-02-20T07:12:44.592Z,22.50
2023-02-20T07:15:12.556Z,22.40
2023-02-20T07:17:39.464Z,22.40
2023-02-20T07:20:06.939Z,22.40
2023-02-20T07:22:33.697Z,22.40
2023-02-20T07:25:00.399Z,22.40
2023-02-20T07:27:27.137Z,22.40
2023-02-20T07:29:53.832Z,22.40
2023-02-20T07:32:23.281Z,22.40
2023-02-20T07:35:03.053Z,22.40
2023-02-20T07:37:31.793Z,22.40
2023-02-20T07:39:58.524Z,22.40
2023-02-20T07:42:25.296Z,22.40
2023-02-20T07:44:52.056Z,22.50
2023-02-20T07:47:18.783Z,22.40
2023-02-20T07:49:45.460Z,22.50
2023-02-20T07:52:12.183Z,22.40
2023-02-20T07:54:38.964Z,22.50
2023-02-20T07:57:05.711Z,22.50
2023-02-20T07:59:32.653Z,22.50
2023-02-20T08:01:59.396Z,22.50
2023-02-20T08:04:27.346Z,22.50
2023-02-20T08:06:54.319Z,22.50
2023-02-20T08:09:21.000Z,22.50
2023-02-20T08:11:47.718Z,22.60
2023-02-20T08:14:15.088Z,22.60
2023-02-20T08:16:41.836Z,22.60
2023-02-20T08:19:08.562Z,22.60
2023-02-20T08:21:35.436Z,22.70
2023-02-20T08:24:02.168Z,22.70
2023-02-20T08:26:29.244Z,22.80
2023-02-20T08:28:55.992Z,22.80
2023-02-20T08:31:32.127Z,22.80
2023-02-20T08:33:59.358Z,22.80
2023-02-20T08:36:26.064Z,22.90
2023-02-20T08:38:52.761Z,22.90
2023-02-20T08:41:19.618Z,23.00
2023-02-20T08:43:46.619Z,23.00
2023-02-20T08:46:13.886Z,23.10
2023-02-20T08:48:41.667Z,23.00
2023-02-20T08:51:08.594Z,23.10
2023-02-20T08:53:37.670Z,23.10
2023-02-20T08:56:05.801Z,23.00
2023-02-20T08:58:32.539Z,23.00
2023-02-20T09:00:59.275Z,23.10
2023-02-20T09:03:27.238Z,23.00
2023-02-20T09:05:53.949Z,23.00
2023-02-20T09:08:20.707Z,23.00
2023-02-20T09:10:47.590Z,23.00
2023-02-20T09:13:14.542Z,23.00
2023-02-20T09:15:41.366Z,23.10
2023-02-20T09:18:11.528Z,23.10
2023-02-20T09:20:38.839Z,23.20
2023-02-20T09:23:06.413Z,23.10
2023-02-20T09:25:33.492Z,23.20
2023-02-20T09:28:00.257Z,23.20
2023-02-20T09:30:27.114Z,23.10
2023-02-20T09:32:54.550Z,23.10
2023-02-20T09:35:25.426Z,23.10
2023-02-20T09:37:52.645Z,23.10
2023-02-20T09:40:24.831Z,23.10
2023-02-20T09:43:17.219Z,23.10
2023-02-20T09:46:20.173Z,23.10
2023-02-20T09:49:09.771Z,23.00
2023-02-20T09:51:40.733Z,23.10
2023-02-20T09:54:26.585Z,23.00
2023-02-20T09:56:59.702Z,23.00
2023-02-20T09:59:48.760Z,23.00
2023-02-20T10:02:17.785Z,23.00
2023-02-20T10:05:00.838Z,23.00
2023-02-20T10:07:32.816Z,23.00
2023-02-20T10:10:02.512Z,23.00
2023-02-20T10:12:38.186Z,23.00
2023-02-20T10:15:12.507Z,23.00
2023-02-20T10:18:02.866Z,23.00
2023-02-20T10:20:55.996Z,23.00
2023-02-20T10:23:37.792Z,23.00
2023-02-20T10:26:11.012Z,22.90
2023-02-20T10:28:38.628Z,22.90
2023-02-20T10:31:20.289Z,22.90
2023-02-20T10:33:56.896Z,23.00
2023-02-20T10:36:37.731Z,22.90
2023-02-20T10:39:09.540Z,23.00
2023-02-20T10:41:56.720Z,22.90
2023-02-20T10:44:31.003Z,22.90
2023-02-20T10:47:20.789Z,22.90
2023-02-20T10:49:53.355Z,22.90
2023-02-20T10:52:46.109Z,23.00
2023-02-20T10:55:18.470Z,23.00
2023-02-20T10:57:51.061Z,23.00
2023-02-20T11:00:25.574Z,22.90
2023-02-20T11:02:57.814Z,23.00
2023-02-20T11:05:28.856Z,22.90
2023-02-20T11:07:55.633Z,23.00
2023-02-20T11:10:22.399Z,23.00
2023-02-20T11:12:54.624Z,23.00
2023-02-20T11:15:25.765Z,23.00
2023-02-20T11:17:54.294Z,23.00
2023-02-20T11:20:35.293Z,23.00
2023-02-20T11:23:02.975Z,23.00
2023-02-20T11:25:34.095Z,23.00
2023-02-20T11:28:08.237Z,23.10
2023-02-20T11:30:38.390Z,23.10
2023-02-20T11:33:13.762Z,23.10
2023-02-20T11:35:45.629Z,23.10
2023-02-20T11:38:17.158Z,23.10
2023-02-20T11:40:47.523Z,23.10
2023-02-20T11:43:14.182Z,23.10
2023-02-20T11:45:41.448Z,23.10
2023-02-20T11:48:13.875Z,23.10
2023-02-20T11:50:52.292Z,23.10
2023-02-20T11:53:28.254Z,23.10
2023-02-20T11:56:18.568Z,23.10
2023-02-20T11:58:48.320Z,23.10
2023-02-20T12:01:32.635Z,23.10
2023-02-20T12:04:00.375Z,23.10
2023-02-20T12:06:32.918Z,23.10
2023-02-20T12:09:02.187Z,23.10
2023-02-20T12:11:29.867Z,23.10
2023-02-20T12:13:59.345Z,23.20
2023-02-20T12:16:51.489Z,23.10
2023-02-20T12:19:42.291Z,23.10
2023-02-20T12:22:30.883Z,23.20
2023-02-20T12:25:17.881Z,23.20
2023-02-20T12:27:55.467Z,23.20
2023-02-20T12:31:01.597Z,23.20
2023-02-20T12:33:56.915Z,23.20
2023-02-20T12:36:41.688Z,23.20
2023-02-20T12:39:28.334Z,23.20
2023-02-20T12:42:06.222Z,23.20
2023-02-20T12:45:05.855Z,23.20
2023-02-20T12:47:36.224Z,23.20
2023-02-20T12:50:05.739Z,23.20
2023-02-20T12:53:03.847Z,23.20
2023-02-20T12:55:44.512Z,23.20
2023-02-20T12:58:16.181Z,23.20
2023-02-20T13:01:02.060Z,23.20
2023-02-20T13:03:40.860Z,23.20
2023-02-20T13:06:08.743Z,23.20
2023-02-20T13:08:46.544Z,23.20
2023-02-20T13:11:19.800Z,23.20
2023-02-20T13:13:55.439Z,23.20
2023-02-20T13:16:36.279Z,23.20
2023-02-20T13:19:26.325Z,23.20
2023-02-20T13:21:55.747Z,23.20
2023-02-20T13:24:22.354Z,23.20
2023-02-20T13:26:54.145Z,23.20
2023-02-20T13:29:27.462Z,23.20
2023-02-20T13:31:54.235Z,23.20
2023-02-20T13:34:27.519Z,23.10
2023-02-20T13:36:54.346Z,23.20
2023-02-20T13:39:21.134Z,23.10
2023-02-20T13:41:56.238Z,23.20
2023-02-20T13:44:33.992Z,23.10
2023-02-20T13:47:02.772Z,23.10
2023-02-20T13:49:44.804Z,23.20
2023-02-20T13:52:32.487Z,23.20
2023-02-20T13:55:11.424Z,23.20
2023-02-20T13:57:57.666Z,23.10
2023-02-20T14:00:36.801Z,23.20
2023-02-20T14:03:34.600Z,23.20
2023-02-20T14:06:18.756Z,23.10
2023-02-20T14:08:47.757Z,23.10
2023-02-20T14:11:26.387Z,23.20
2023-02-20T14:13:57.831Z,23.10
2023-02-20T14:16:30.899Z,23.10
2023-02-20T14:19:20.220Z,23.10
2023-02-20T14:21:47.124Z,23.10
2023-02-20T14:24:28.967Z,23.10
2023-02-20T14:26:56.908Z,23.10
2023-02-20T14:29:27.388Z,23.10
2023-02-20T14:31:56.835Z,23.10
2023-02-20T14:34:55.902Z,23.10
2023-02-20T14:37:29.858Z,23.10
2023-02-20T14:40:17.924Z,23.10
2023-02-20T14:42:46.840Z,23.10
2023-02-20T14:45:24.565Z,23.10
2023-02-20T14:48:01.599Z,23.10
2023-02-20T14:50:36.025Z,23.10
2023-02-20T14:53:16.442Z,23.00
2023-02-20T14:55:43.902Z,23.00
2023-02-20T14:58:20.197Z,23.00
2023-02-20T15:00:48.918Z,23.00
2023-02-20T15:03:30.295Z,23.00
2023-02-20T15:06:03.844Z,23.00
2023-02-20T15:08:35.564Z,23.10
2023-02-20T15:11:14.816Z,23.10
2023-02-20T15:13:44.347Z,23.00
2023-02-20T15:16:18.351Z,23.10
2023-02-20T15:18:50.116Z,23.10
2023-02-20T15:21:34.200Z,23.10
2023-02-20T15:24:25.787Z,23.10
2023-02-20T15:26:52.872Z,22.90
2023-02-20T15:29:28.148Z,23.00
2023-02-20T15:32:00.436Z,23.00
2023-02-20T15:34:35.973Z,23.00
2023-02-20T15:37:34.290Z,23.00
2023-02-20T15:40:26.136Z,23.00
2023-02-20T15:42:57.133Z,23.00
2023-02-20T15:45:26.241Z,23.00
2023-02-20T15:47:53.064Z,23.00
2023-02-20T15:50:19.843Z,23.00
2023-02-20T15:52:47.183Z,23.00
2023-02-20T15:55:17.564Z,23.00
2023-02-20T15:57:49.197Z,23.00
2023-02-20T16:00:26.062Z,23.00
2023-02-20T16:02:54.326Z,23.00
2023-02-20T16:05:21.226Z,22.90
2023-02-20T16:07:48.003Z,22.90
2023-02-20T16:10:18.384Z,22.90
2023-02-20T16:12:45.631Z,23.00
2023-02-20T16:15:17.332Z,23.00
2023-02-20T16:17:44.678Z,23.00
2023-02-20T16:20:24.393Z,22.90
2023-02-20T16:22:51.801Z,23.00
2023-02-20T16:25:20.164Z,22.90
2023-02-20T16:27:52.413Z,22.90
2023-02-20T16:30:33.585Z,22.90
2023-02-20T16:33:01.964Z,22.90
2023-02-20T16:35:28.773Z,22.90
2023-02-20T16:37:55.530Z,22.90
2023-02-20T16:40:22.349Z,22.90
2023-02-20T16:42:49.043Z,22.90
2023-02-20T16:45:18.540Z,22.90
2023-02-20T16:47:49.693Z,22.90
2023-02-20T16:50:20.605Z,22.90
2023-02-20T16:52:50.649Z,22.90
2023-02-20T16:55:32.757Z,22.90
2023-02-20T16:58:00.398Z,22.90
2023-02-20T17:00:38.472Z,22.90
2023-02-20T17:03:12.209Z,22.90
2023-02-20T17:05:40.182Z,22.90
2023-02-20T17:08:07.491Z,22.90
2023-02-20T17:10:35.069Z,22.90
2023-02-20T17:13:01.910Z,22.90
2023-02-20T17:15:28.613Z,22.90
2023-02-20T17:17:55.525Z,22.90
2023-02-20T17:20:26.714Z,22.90
2023-02-20T17:23:04.092Z,22.90
2023-02-20T17:25:34.484Z,22.90
2023-02-20T17:28:01.637Z,22.90
2023-02-20T17:30:28.363Z,22.90
2023-02-20T17:32:55.079Z,22.90
2023-02-20T17:35:21.912Z,22.90
2023-02-20T17:37:49.498Z,22.80
2023-02-20T17:40:17.048Z,22.90
2023-02-20T17:42:43.753Z,22.90
2023-02-20T17:45:10.885Z,22.90
2023-02-20T17:47:39.329Z,22.80
2023-02-20T17:50:06.720Z,22.90
2023-02-20T17:52:33.424Z,22.90
2023-02-20T17:55:00.131Z,22.80
2023-02-20T17:57:28.370Z,22.90
2023-02-20T17:59:55.133Z,22.90
2023-02-20T18:02:21.828Z,22.90
2023-02-20T18:04:48.542Z,22.80
2023-02-20T18:07:17.318Z,22.80
2023-02-20T18:09:44.422Z,22.80
2023-02-20T18:12:11.236Z,22.80
2023-02-20T18:14:37.944Z,22.80
2023-02-20T18:17:04.712Z,22.80
2023-02-20T18:19:32.351Z,22.80
2023-02-20T18:21:59.408Z,22.80
2023-02-20T18:24:26.272Z,22.80
2023-02-20T18:26:54.013Z,22.80
2023-02-20T18:29:22.733Z,22.80
2023-02-20T18:31:49.716Z,22.80
2023-02-20T18:34:17.352Z,22.80
2023-02-20T18:36:44.201Z,22.80
2023-02-20T18:39:13.630Z,22.80
2023-02-20T18:41:40.759Z,22.80
2023-02-20T18:44:08.788Z,22.80
2023-02-20T18:46:37.389Z,22.80
2023-02-20T18:49:04.451Z,22.80
2023-02-20T18:51:42.120Z,22.80
2023-02-20T18:54:16.778Z,22.80
2023-02-20T18:56:47.445Z,22.80
2023-02-20T18:59:14.405Z,22.80
2023-02-20T19:01:42.533Z,22.80
2023-02-20T19:04:11.000Z,22.80
2023-02-20T19:06:40.551Z,22.80
2023-02-20T19:09:08.323Z,22.80
2023-02-20T19:11:35.003Z,22.80
2023-02-20T19:14:01.998Z,22.80
2023-02-20T19:16:28.786Z,22.80
2023-02-20T19:18:55.462Z,22.80
2023-02-20T19:21:22.210Z,22.80
2023-02-20T19:23:49.193Z,22.80
2023-02-20T19:26:16.461Z,22.80
2023-02-20T19:28:43.303Z,22.80
2023-02-20T19:31:11.494Z,22.90
2023-02-20T19:33:39.088Z,22.90
2023-02-20T19:36:09.878Z,22.90
2023-02-20T19:38:39.020Z,22.90
2023-02-20T19:41:05.763Z,22.90
2023-02-20T19:43:32.517Z,22.90
2023-02-20T19:45:59.253Z,22.90
2023-02-20T19:48:28.028Z,23.00
2023-02-20T19:50:56.048Z,22.90
2023-02-20T19:53:22.975Z,23.00
2023-02-20T19:55:52.607Z,23.00
2023-02-20T19:58:19.319Z,23.00
2023-02-20T20:00:45.985Z,23.00
2023-02-20T20:03:12.658Z,23.00
2023-02-20T20:05:39.376Z,23.00
2023-02-20T20:08:06.901Z,23.00
2023-02-20T20:10:33.704Z,22.90
2023-02-20T20:13:00.437Z,23.00
2023-02-20T20:15:28.736Z,23.00
2023-02-20T20:17:59.539Z,23.00
2023-02-20T20:20:28.116Z,23.00
2023-02-20T20:22:57.659Z,23.00
2023-02-20T20:25:24.837Z,23.00
2023-02-20T20:27:52.799Z,23.00
2023-02-20T20:30:23.407Z,23.00
2023-02-20T20:32:51.627Z,23.00
2023-02-20T20:35:20.131Z,23.00
2023-02-20T20:37:47.124Z,23.00
2023-02-20T20:40:14.696Z,23.00
2023-02-20T20:42:41.724Z,23.00
2023-02-20T20:45:09.522Z,23.00
2023-02-20T20:47:37.116Z,23.00
2023-02-20T20:50:04.112Z,23.00
2023-02-20T20:52:31.858Z,23.00
2023-02-20T20:55:02.761Z,23.10
2023-02-20T20:57:32.821Z,23.00
2023-02-20T21:00:00.511Z,23.00
2023-02-20T21:02:28.290Z,23.00
2023-02-20T21:05:09.221Z,23.10
2023-02-20T21:07:36.876Z,23.10
2023-02-20T21:10:03.898Z,23.10
2023-02-20T21:12:30.573Z,23.10
2023-02-20T21:14:57.269Z,23.10
2023-02-20T21:17:24.039Z,23.10
2023-02-20T21:19:50.742Z,23.10
2023-02-20T21:22:17.427Z,23.10
2023-02-20T21:24:44.115Z,23.10
2023-02-20T21:27:10.847Z,23.20
2023-02-20T21:29:37.559Z,23.20
2023-02-20T21:32:04.357Z,23.20
2023-02-20T21:34:31.061Z,23.20
2023-02-20T21:36:57.987Z,23.20
2023-02-20T21:39:24.761Z,23.20
2023-02-20T21:42:10.913Z,23.20
2023-02-20T21:44:39.590Z,23.20
2023-02-20T21:47:09.782Z,23.20
2023-02-20T21:49:41.545Z,23.20
2023-02-20T21:52:08.245Z,23.20
2023-02-20T21:54:35.324Z,23.20
2023-02-20T21:57:02.287Z,23.20
2023-02-20T21:59:29.252Z,23.20
2023-02-20T22:01:56.311Z,23.20
2023-02-20T22:04:24.055Z,23.20
2023-02-20T22:07:10.220Z,23.20
2023-02-20T22:09:55.505Z,23.20
2023-02-20T22:12:40.905Z,23.20
2023-02-20T22:15:26.988Z,23.20
2023-02-20T22:18:12.885Z,23.20
2023-02-20T22:20:58.205Z,23.20
2023-02-20T22:23:43.678Z,23.20
2023-02-20T22:26:29.049Z,23.10
2023-02-20T22:29:14.556Z,23.20
2023-02-20T22:31:59.896Z,23.20
2023-02-20T22:34:45.286Z,23.10
2023-02-20T22:37:30.752Z,23.10
2023-02-20T22:40:16.049Z,23.10
2023-02-20T22:43:01.653Z,23.10
2023-02-20T22:45:46.912Z,23.10
2023-02-20T22:48:32.144Z,23.10
2023-02-20T22:51:17.654Z,23.10
2023-02-20T22:54:05.897Z,23.10
2023-02-20T22:56:51.417Z,23.10
2023-02-20T22:59:36.800Z,23.10
2023-02-20T23:02:22.135Z,23.10
2023-02-20T23:05:07.591Z,23.10
2023-02-20T23:07:52.964Z,23.10
2023-02-20T23:10:38.526Z,23.10
2023-02-20T23:13:24.587Z,23.10
2023-02-20T23:16:10.102Z,23.10
2023-02-20T23:18:55.413Z,23.10
2023-02-20T23:21:40.725Z,23.10
2023-02-20T23:24:26.221Z,23.10
2023-02-20T23:27:12.337Z,23.10
2023-02-20T23:29:57.853Z,23.10
2023-02-20T23:32:43.248Z,23.10
2023-02-20T23:35:28.982Z,23.10
2023-02-20T23:38:14.434Z,23.10
2023-02-20T23:40:59.861Z,23.10
2023-02-20T23:43:47.327Z,23.10
2023-02-20T23:46:33.366Z,23.10
2023-02-20T23:49:18.684Z,23.10
2023-02-20T23:52:14.851Z,23.10
2023-02-20T23:55:02.378Z,23.00
2023-02-20T23:57:48.127Z,23.10
